ěÝzenÝ letovÚho provozu ╚eskÚ republiky
Letiste: LKCV Aktualizace: 07.07.2020 15:31:25  UTC
 METAR LKCV 07.07. 15:30 ...
METAR LKCV 071530Z 30007KT 250V320 9999 FEW047 SCT080 19/07 Q1018 NOSIG RMK BLU BLU=
 TAF LKCV 07.07. 11:00 ...
TAF LKCV 071100Z 0712/0812 30008KT 9999 BKN030      PROB30 TEMPO 0712/0715 31012G24KT SHRA BKN025      BECMG 0714/0716 VRB02KT CAVOK      BECMG 0721/0723 18008KT SCT030      PROB30 TEMPO 0807/0812 VRB02KT 8000 RA SCT020 OVC030=